FCPP

Pointe Noire Airport

Pointe Noire, Congo
METAR FCPP 162300Z 14003KT 9999 FEW010 FEW030CB 25/24 Q1011 TEMPO TS
Observed Flight Rules
Dec-16 @ 23:00 UTC (an hour ago) Visual Flight Rules
Wind Visibility Clouds
140° at 3 knots 10,000+ meters
  • Few at 1,000' AGL
  • Few at 3,000' AGL
Temperatures Readings
Current 25°C / 77°F
Dewpoint 24°C / 75°F
Humidity 94%
Altimeter 29.85" Hg
Pressure 1011 hPa
Elevation 17
METAR FCPP 162300Z 14003KT 9999 FEW010 FEW030CB 25/24 Q1011 TEMPO TS
Observed Flight Rules
Dec-16 @ 23:00 UTC
(an hour ago)
VFR
Wind Visibility
140° at 3 knots 10,000+ meters
Clouds
  • Few at 1,000' AGL
  • Few at 3,000' AGL
Temperature Dewpoint
25°C / 77°F 24°C / 75°F
Humidity Altimeter Pressure
94% 29.85" Hg 1011 hPa